Nanticoke — WDC4353 — position and weather

sailwx.info

Track history (hours):
 
Tides and Currents Weather Stations Pressure Air Temp Water Temp Dewpoint Dewpoint Depression Visibility Wind Speed Wind Dir Waves Ship Positions

Nanticoke

Owner: Vane Line Bunkering, Baltimore, MD. More information available from US FCC via Universal Licensing System and Coast Guard Vessel Documentation Center.

Last reported at 2016-Aug-25 21:33 UTC. Time now 2016-Aug-25 21:59 UTC.
Position N 39°42' W 075°31'.

Length 34 m; draft 4.7 m.

Type: Towing. MMSI: 367023480.

Date/timePositionNaut miles runAvg speedWind from/ knotsBaromVisibWave heightAir tempDewpointWater temp
2016-Aug-25 21:33N 39°42' W 075°31'7 6.6
2016-Aug-25 20:33N 39°47' W 075°27'3 2.5
2016-Aug-25 19:34N 39°49' W 075°24'4 4.4
2016-Aug-25 18:33N 39°51' W 075°19'6 5.8
2016-Aug-25 17:34N 39°54' W 075°12'0 0.0
2016-Aug-25 16:34N 39°54' W 075°12'0 0.0
2016-Aug-25 15:33N 39°54' W 075°12'0 0.0
2016-Aug-25 14:34N 39°54' W 075°12'0 0.0
2016-Aug-25 13:34N 39°54' W 075°12'0 0.0
2016-Aug-25 12:34N 39°54' W 075°12'0 0.0
2016-Aug-25 11:34N 39°54' W 075°12'0 0.0
2016-Aug-25 10:33N 39°54' W 075°12'0 0.0
2016-Aug-25 09:34N 39°54' W 075°12'0 0.0
2016-Aug-25 08:33N 39°54' W 075°12'0 0.0
2016-Aug-25 07:34N 39°54' W 075°12'0 0.0
2016-Aug-25 06:34N 39°54' W 075°12'4 2.1
2016-Aug-25 04:34N 39°51' W 075°16'6 6.3
2016-Aug-25 03:33N 39°49' W 075°24'5 4.8
2016-Aug-25 02:34N 39°46' W 075°29'8 7.9
2016-Aug-25 01:34N 39°39' W 075°34'7 7.3
2016-Aug-25 00:33N 39°31' W 075°33'8 8.1
2016-Aug-24 23:33N 39°24' W 075°29'9 9.1
2016-Aug-24 22:33N 39°17' W 075°22'9 9.3
2016-Aug-24 21:33N 39°09' W 075°15'9 9.3
2016-Aug-24 20:33N 39°01' W 075°09'17 8.4
2016-Aug-24 18:33N 38°49' W 074°54'11 9.7
2016-Aug-24 17:24N 38°57' W 074°44'33 9.9
2016-Aug-24 14:08N 39°20' W 074°15'610.0
2016-Aug-24 13:32N 39°25' W 074°11'1010.1
2016-Aug-24 12:33N 39°34' W 074°05'1010.1
2016-Aug-24 11:32N 39°43' W 073°60'1110.1
2016-Aug-24 10:29N 39°54' W 073°57'1010.0
2016-Aug-24 09:30N 40°04' W 073°56'1110.0
2016-Aug-24 08:27N 40°14' W 073°54'1010.1
2016-Aug-24 07:24N 40°25' W 073°55'7 8.8
2016-Aug-24 06:34N 40°29' W 074°03'10 0.6
2016-Aug-23 14:15N 40°36' W 074°12'4 5.4
2016-Aug-23 13:34N 40°39' W 074°08'5 4.8
2016-Aug-23 12:34N 40°40' W 074°02'0 0.1
2016-Aug-23 11:34N 40°40' W 074°02'0 0.0
2016-Aug-23 10:33N 40°40' W 074°02'0 0.0
2016-Aug-23 09:34N 40°40' W 074°02'0 0.0
2016-Aug-23 08:34N 40°40' W 074°02'0 0.0
2016-Aug-23 07:34N 40°40' W 074°02'0 0.1
2016-Aug-23 06:33N 40°40' W 074°02'0 0.1
2016-Aug-23 05:34N 40°40' W 074°02'0 0.0
2016-Aug-23 04:33N 40°40' W 074°02'0 0.0
2016-Aug-23 03:33N 40°40' W 074°02'0 0.1
2016-Aug-23 02:34N 40°40' W 074°02'0 0.1
2016-Aug-23 01:33N 40°40' W 074°02'0 0.0
2016-Aug-23 00:33N 40°40' W 074°02'0 0.0
2016-Aug-22 23:33N 40°40' W 074°02'0 0.0
2016-Aug-22 22:34N 40°40' W 074°02'0 0.0
2016-Aug-22 21:34N 40°40' W 074°02'0 0.0
2016-Aug-22 20:34N 40°40' W 074°02'0 0.0
2016-Aug-22 19:34N 40°40' W 074°02'0 0.0
2016-Aug-22 18:34N 40°40' W 074°02'0 0.0
2016-Aug-22 17:33N 40°40' W 074°02'0 0.2
2016-Aug-22 16:33N 40°40' W 074°02'0 0.1
2016-Aug-22 15:34N 40°40' W 074°02'0 0.0
2016-Aug-22 14:33N 40°40' W 074°02'0 0.1
2016-Aug-22 13:34N 40°40' W 074°02'0 0.0
2016-Aug-22 12:33N 40°40' W 074°02'0 0.1
2016-Aug-22 11:33N 40°40' W 074°02'0 0.0
2016-Aug-22 10:33N 40°40' W 074°02'0 0.0
2016-Aug-22 09:33N 40°40' W 074°02'0 0.0
2016-Aug-22 08:33N 40°40' W 074°02'0 0.0
2016-Aug-22 07:33N 40°40' W 074°02'0 0.0
2016-Aug-22 06:34N 40°40' W 074°02'0 0.1
2016-Aug-22 05:33N 40°40' W 074°02'0 0.2
2016-Aug-22 04:34N 40°40' W 074°02'3 3.0
2016-Aug-22 03:33N 40°37' W 074°03'7 6.8
2016-Aug-22 02:33N 40°31' W 073°59'37 7.4
2016-Aug-21 21:32N 39°54' W 073°57'8 7.7
2016-Aug-21 20:29N 39°46' W 073°58'7 7.6
2016-Aug-21 19:33N 39°39' W 074°02'7 7.5
2016-Aug-21 18:33N 39°32' W 074°06'8 7.7
2016-Aug-21 17:34N 39°25' W 074°10'31 7.7
2016-Aug-21 13:30N 39°02' W 074°38'7 7.4
2016-Aug-21 12:33N 38°57' W 074°43'7 7.3
2016-Aug-21 11:33N 38°51' W 074°49'12 6.0
2016-Aug-21 09:32N 38°53' W 075°05'7 7.6
2016-Aug-21 08:33N 39°00' W 075°09'8 8.4
2016-Aug-21 07:33N 39°08' W 075°13'10 9.6
2016-Aug-21 06:33N 39°16' W 075°20'9 8.7
2016-Aug-21 05:34N 39°22' W 075°28'7 7.0
2016-Aug-21 04:33N 39°27' W 075°34'6 6.3
2016-Aug-21 03:33N 39°34' W 075°33'6 5.9
2016-Aug-21 02:33N 39°40' W 075°32'9 8.9
2016-Aug-21 01:34N 39°47' W 075°27'2 2.0
2016-Aug-21 00:33N 39°49' W 075°25'0 0.0
2016-Aug-20 23:33N 39°49' W 075°25'10 9.8
2016-Aug-20 22:33N 39°52' W 075°13'2 1.6
2016-Aug-20 21:34N 39°54' W 075°12'0 0.0
2016-Aug-20 20:33N 39°54' W 075°12'0 0.0
2016-Aug-20 19:33N 39°54' W 075°12'0 0.0
2016-Aug-20 18:34N 39°54' W 075°12'0 0.0
2016-Aug-20 17:33N 39°54' W 075°12'0 0.0
2016-Aug-20 16:33N 39°54' W 075°12'0 0.0
2016-Aug-20 15:33N 39°54' W 075°12'1 0.6
2016-Aug-20 14:33N 39°53' W 075°12'0 0.0
2016-Aug-20 13:33N 39°53' W 075°12'1 0.6
2016-Aug-20 12:33N 39°54' W 075°12'1 1.5
2016-Aug-20 11:34N 39°52' W 075°13'9 8.5
2016-Aug-20 10:33N 39°49' W 075°23'0 0.4
2016-Aug-20 09:33N 39°49' W 075°23'0 0.0
2016-Aug-20 08:34N 39°49' W 075°23'0 0.2
2016-Aug-20 07:34N 39°49' W 075°23'0 0.0
2016-Aug-20 06:33N 39°49' W 075°23'0 0.0
2016-Aug-20 05:33N 39°49' W 075°23'0 0.0
2016-Aug-20 04:33N 39°49' W 075°23'0 0.0
2016-Aug-20 03:33N 39°49' W 075°23'0 0.0
2016-Aug-20 02:34N 39°49' W 075°23'8 8.1
2016-Aug-20 01:33N 39°43' W 075°30'9 9.1
2016-Aug-20 00:33N 39°34' W 075°33'9 8.8
2016-Aug-19 23:33N 39°26' W 075°32'6 6.3
2016-Aug-19 22:33N 39°21' W 075°26'8 7.7
2016-Aug-19 21:34N 39°15' W 075°19'8 7.9
2016-Aug-19 20:33N 39°08' W 075°14'8 8.4
2016-Aug-19 19:33N 39°01' W 075°09'8 7.7
2016-Aug-19 18:29N 38°53' W 075°04'7 7.2
2016-Aug-19 17:33N 38°48' W 074°59'37 9.4
2016-Aug-19 13:33N 39°13' W 074°24'10 9.8
2016-Aug-19 12:33N 39°20' W 074°15'1010.0
2016-Aug-19 11:33N 39°29' W 074°08'1010.0
2016-Aug-19 10:33N 39°38' W 074°03'10 9.8
2016-Aug-19 09:33N 39°47' W 073°58'1010.1
2016-Aug-19 08:33N 39°57' W 073°57'10 9.9
2016-Aug-19 07:33N 40°07' W 073°55'2010.0
2016-Aug-19 05:33N 40°27' W 073°56'10 9.8
2016-Aug-19 04:33N 40°30' W 074°09'0 0.1
2016-Aug-19 02:08N 40°30' W 074°08'5 8.3
2016-Aug-19 01:33N 40°32' W 074°02'9 8.7
2016-Aug-19 00:33N 40°40' W 074°00'0 0.0
2016-Aug-18 23:33N 40°40' W 074°00'0 0.0
2016-Aug-18 22:33N 40°40' W 074°00'0 0.0
2016-Aug-18 21:33N 40°40' W 074°00'0 0.0
2016-Aug-18 20:34N 40°40' W 074°00'0 0.0
2016-Aug-18 19:33N 40°40' W 074°00'5 5.2
2016-Aug-18 18:33N 40°39' W 074°07'5 1.2
2016-Aug-18 14:33N 40°36' W 074°12'6 6.4
2016-Aug-18 13:33N 40°39' W 074°05'2 1.7
2016-Aug-18 12:33N 40°40' W 074°02'0 0.0
2016-Aug-18 11:34N 40°39' W 074°02'0 0.0
2016-Aug-18 10:33N 40°39' W 074°02'0 0.1
2016-Aug-18 09:33N 40°39' W 074°02'0 0.1
2016-Aug-18 08:33N 40°39' W 074°02'0 0.0
2016-Aug-18 07:34N 40°39' W 074°03'0 0.0
2016-Aug-18 06:34N 40°39' W 074°02'0 0.0
2016-Aug-18 05:34N 40°39' W 074°02'0 0.0
2016-Aug-18 04:33N 40°39' W 074°03'0 0.0
2016-Aug-18 03:33N 40°39' W 074°02'0 0.2
2016-Aug-18 02:33N 40°39' W 074°02'0 0.0
2016-Aug-18 01:33N 40°40' W 074°02'0 0.0
2016-Aug-18 00:33N 40°40' W 074°02'0 0.0
2016-Aug-17 23:33N 40°40' W 074°02'0 0.1
2016-Aug-17 22:33N 40°39' W 074°02'0 0.2
2016-Aug-17 21:33N 40°39' W 074°02'0 0.0
2016-Aug-17 20:33N 40°39' W 074°02'0 0.0
2016-Aug-17 19:33N 40°39' W 074°02'0 0.0
2016-Aug-17 18:33N 40°39' W 074°02'0 0.0
2016-Aug-17 17:33N 40°39' W 074°02'0 0.0
2016-Aug-17 16:33N 40°39' W 074°02'0 0.0
2016-Aug-17 15:33N 40°39' W 074°02'0 0.1
2016-Aug-17 14:33N 40°39' W 074°02'0 0.2
2016-Aug-17 13:33N 40°39' W 074°02'0 0.0
2016-Aug-17 12:34N 40°40' W 074°02'0 0.0
2016-Aug-17 11:33N 40°39' W 074°02'0 0.0
2016-Aug-17 10:33N 40°39' W 074°02'0 0.1
2016-Aug-17 09:33N 40°39' W 074°02'5 5.1
2016-Aug-17 08:33N 40°34' W 074°02'4 4.5
2016-Aug-17 07:33N 40°31' W 073°58'40 7.4
2016-Aug-17 02:12N 39°51' W 073°59'5 8.0
2016-Aug-17 01:33N 39°46' W 073°60'8 8.0
2016-Aug-17 00:31N 39°38' W 074°03'8 7.8
2016-Aug-16 23:33N 39°32' W 074°08'8 7.7
2016-Aug-16 22:33N 39°25' W 074°13'8 7.6
2016-Aug-16 21:31N 39°19' W 074°19'31 7.6
2016-Aug-16 17:23N 38°55' W 074°46'7 7.8
2016-Aug-16 16:30N 38°50' W 074°52'8 8.2
2016-Aug-16 15:32N 38°49' W 075°02'10 9.0
2016-Aug-16 14:28N 38°57' W 075°07'5 5.6
2016-Aug-16 13:33N 39°02' W 075°10'8 8.0
2016-Aug-16 12:33N 39°09' W 075°15'7 6.9
2016-Aug-16 11:33N 39°15' W 075°19'7 7.3
2016-Aug-16 10:33N 39°20' W 075°26'8 8.4
2016-Aug-16 09:33N 39°27' W 075°33'9 9.4
2016-Aug-16 08:33N 39°36' W 075°34'10 9.8
2016-Aug-16 07:33N 39°45' W 075°29'5 1.8
2016-Aug-16 04:33N 39°49' W 075°24'0 0.0
2016-Aug-16 03:33N 39°49' W 075°24'0 0.0
2016-Aug-16 02:33N 39°49' W 075°24'0 0.0
2016-Aug-16 01:34N 39°49' W 075°24'0 0.0
2016-Aug-16 00:33N 39°49' W 075°24'0 0.0
2016-Aug-15 23:33N 39°49' W 075°24'0 0.0
2016-Aug-15 22:33N 39°49' W 075°24'0 0.0
2016-Aug-15 21:33N 39°49' W 075°24'  
Track history (hours):
 
Tides and Currents Weather Stations Pressure Air Temp Water Temp Dewpoint Dewpoint Depression Visibility Wind Speed Wind Dir Waves Ship Positions

Nanticoke

Owner: Vane Line Bunkering, Baltimore, MD. More information available from US FCC via Universal Licensing System and Coast Guard Vessel Documentation Center.

Last reported at 2016-Aug-25 21:33 UTC. Time now 2016-Aug-25 21:59 UTC.
Position N 39°42' W 075°31'.

Length 34 m; draft 4.7 m.

Type: Towing. MMSI: 367023480.

Date/timePositionNaut miles runAvg speedWind from/ knotsBaromVisibWave heightAir tempDewpointWater temp
2016-Aug-25 21:33N 39°42' W 075°31'7 6.6
2016-Aug-25 20:33N 39°47' W 075°27'3 2.5
2016-Aug-25 19:34N 39°49' W 075°24'4 4.4
2016-Aug-25 18:33N 39°51' W 075°19'6 5.8
2016-Aug-25 17:34N 39°54' W 075°12'0 0.0
2016-Aug-25 16:34N 39°54' W 075°12'0 0.0
2016-Aug-25 15:33N 39°54' W 075°12'0 0.0
2016-Aug-25 14:34N 39°54' W 075°12'0 0.0
2016-Aug-25 13:34N 39°54' W 075°12'0 0.0
2016-Aug-25 12:34N 39°54' W 075°12'0 0.0
2016-Aug-25 11:34N 39°54' W 075°12'0 0.0
2016-Aug-25 10:33N 39°54' W 075°12'0 0.0
2016-Aug-25 09:34N 39°54' W 075°12'0 0.0
2016-Aug-25 08:33N 39°54' W 075°12'0 0.0
2016-Aug-25 07:34N 39°54' W 075°12'0 0.0
2016-Aug-25 06:34N 39°54' W 075°12'4 2.1
2016-Aug-25 04:34N 39°51' W 075°16'6 6.3
2016-Aug-25 03:33N 39°49' W 075°24'5 4.8
2016-Aug-25 02:34N 39°46' W 075°29'8 7.9
2016-Aug-25 01:34N 39°39' W 075°34'7 7.3
2016-Aug-25 00:33N 39°31' W 075°33'8 8.1
2016-Aug-24 23:33N 39°24' W 075°29'9 9.1
2016-Aug-24 22:33N 39°17' W 075°22'9 9.3
2016-Aug-24 21:33N 39°09' W 075°15'9 9.3
2016-Aug-24 20:33N 39°01' W 075°09'17 8.4
2016-Aug-24 18:33N 38°49' W 074°54'11 9.7
2016-Aug-24 17:24N 38°57' W 074°44'33 9.9
2016-Aug-24 14:08N 39°20' W 074°15'610.0
2016-Aug-24 13:32N 39°25' W 074°11'1010.1
2016-Aug-24 12:33N 39°34' W 074°05'1010.1
2016-Aug-24 11:32N 39°43' W 073°60'1110.1
2016-Aug-24 10:29N 39°54' W 073°57'1010.0
2016-Aug-24 09:30N 40°04' W 073°56'1110.0
2016-Aug-24 08:27N 40°14' W 073°54'1010.1
2016-Aug-24 07:24N 40°25' W 073°55'7 8.8
2016-Aug-24 06:34N 40°29' W 074°03'10 0.6
2016-Aug-23 14:15N 40°36' W 074°12'4 5.4
2016-Aug-23 13:34N 40°39' W 074°08'5 4.8
2016-Aug-23 12:34N 40°40' W 074°02'0 0.1
2016-Aug-23 11:34N 40°40' W 074°02'0 0.0
2016-Aug-23 10:33N 40°40' W 074°02'0 0.0
2016-Aug-23 09:34N 40°40' W 074°02'0 0.0
2016-Aug-23 08:34N 40°40' W 074°02'0 0.0
2016-Aug-23 07:34N 40°40' W 074°02'0 0.1
2016-Aug-23 06:33N 40°40' W 074°02'0 0.1
2016-Aug-23 05:34N 40°40' W 074°02'0 0.0
2016-Aug-23 04:33N 40°40' W 074°02'0 0.0
2016-Aug-23 03:33N 40°40' W 074°02'0 0.1
2016-Aug-23 02:34N 40°40' W 074°02'0 0.1
2016-Aug-23 01:33N 40°40' W 074°02'0 0.0
2016-Aug-23 00:33N 40°40' W 074°02'0 0.0
2016-Aug-22 23:33N 40°40' W 074°02'0 0.0
2016-Aug-22 22:34N 40°40' W 074°02'0 0.0
2016-Aug-22 21:34N 40°40' W 074°02'0 0.0
2016-Aug-22 20:34N 40°40' W 074°02'0 0.0
2016-Aug-22 19:34N 40°40' W 074°02'0 0.0
2016-Aug-22 18:34N 40°40' W 074°02'0 0.0
2016-Aug-22 17:33N 40°40' W 074°02'0 0.2
2016-Aug-22 16:33N 40°40' W 074°02'0 0.1
2016-Aug-22 15:34N 40°40' W 074°02'0 0.0
2016-Aug-22 14:33N 40°40' W 074°02'0 0.1
2016-Aug-22 13:34N 40°40' W 074°02'0 0.0
2016-Aug-22 12:33N 40°40' W 074°02'0 0.1
2016-Aug-22 11:33N 40°40' W 074°02'0 0.0
2016-Aug-22 10:33N 40°40' W 074°02'0 0.0
2016-Aug-22 09:33N 40°40' W 074°02'0 0.0
2016-Aug-22 08:33N 40°40' W 074°02'0 0.0
2016-Aug-22 07:33N 40°40' W 074°02'0 0.0
2016-Aug-22 06:34N 40°40' W 074°02'0 0.1
2016-Aug-22 05:33N 40°40' W 074°02'0 0.2
2016-Aug-22 04:34N 40°40' W 074°02'3 3.0
2016-Aug-22 03:33N 40°37' W 074°03'7 6.8
2016-Aug-22 02:33N 40°31' W 073°59'37 7.4
2016-Aug-21 21:32N 39°54' W 073°57'8 7.7
2016-Aug-21 20:29N 39°46' W 073°58'7 7.6
2016-Aug-21 19:33N 39°39' W 074°02'7 7.5
2016-Aug-21 18:33N 39°32' W 074°06'8 7.7
2016-Aug-21 17:34N 39°25' W 074°10'31 7.7
2016-Aug-21 13:30N 39°02' W 074°38'7 7.4
2016-Aug-21 12:33N 38°57' W 074°43'7 7.3
2016-Aug-21 11:33N 38°51' W 074°49'12 6.0
2016-Aug-21 09:32N 38°53' W 075°05'7 7.6
2016-Aug-21 08:33N 39°00' W 075°09'8 8.4
2016-Aug-21 07:33N 39°08' W 075°13'10 9.6
2016-Aug-21 06:33N 39°16' W 075°20'9 8.7
2016-Aug-21 05:34N 39°22' W 075°28'7 7.0
2016-Aug-21 04:33N 39°27' W 075°34'6 6.3
2016-Aug-21 03:33N 39°34' W 075°33'6 5.9
2016-Aug-21 02:33N 39°40' W 075°32'9 8.9
2016-Aug-21 01:34N 39°47' W 075°27'2 2.0
2016-Aug-21 00:33N 39°49' W 075°25'0 0.0
2016-Aug-20 23:33N 39°49' W 075°25'10 9.8
2016-Aug-20 22:33N 39°52' W 075°13'2 1.6
2016-Aug-20 21:34N 39°54' W 075°12'0 0.0
2016-Aug-20 20:33N 39°54' W 075°12'0 0.0
2016-Aug-20 19:33N 39°54' W 075°12'0 0.0
2016-Aug-20 18:34N 39°54' W 075°12'0 0.0
2016-Aug-20 17:33N 39°54' W 075°12'0 0.0
2016-Aug-20 16:33N 39°54' W 075°12'0 0.0
2016-Aug-20 15:33N 39°54' W 075°12'1 0.6
2016-Aug-20 14:33N 39°53' W 075°12'0 0.0
2016-Aug-20 13:33N 39°53' W 075°12'1 0.6
2016-Aug-20 12:33N 39°54' W 075°12'1 1.5
2016-Aug-20 11:34N 39°52' W 075°13'9 8.5
2016-Aug-20 10:33N 39°49' W 075°23'0 0.4
2016-Aug-20 09:33N 39°49' W 075°23'0 0.0
2016-Aug-20 08:34N 39°49' W 075°23'0 0.2
2016-Aug-20 07:34N 39°49' W 075°23'0 0.0
2016-Aug-20 06:33N 39°49' W 075°23'0 0.0
2016-Aug-20 05:33N 39°49' W 075°23'0 0.0
2016-Aug-20 04:33N 39°49' W 075°23'0 0.0
2016-Aug-20 03:33N 39°49' W 075°23'0 0.0
2016-Aug-20 02:34N 39°49' W 075°23'8 8.1
2016-Aug-20 01:33N 39°43' W 075°30'9 9.1
2016-Aug-20 00:33N 39°34' W 075°33'9 8.8
2016-Aug-19 23:33N 39°26' W 075°32'6 6.3
2016-Aug-19 22:33N 39°21' W 075°26'8 7.7
2016-Aug-19 21:34N 39°15' W 075°19'8 7.9
2016-Aug-19 20:33N 39°08' W 075°14'8 8.4
2016-Aug-19 19:33N 39°01' W 075°09'8 7.7
2016-Aug-19 18:29N 38°53' W 075°04'7 7.2
2016-Aug-19 17:33N 38°48' W 074°59'37 9.4
2016-Aug-19 13:33N 39°13' W 074°24'10 9.8
2016-Aug-19 12:33N 39°20' W 074°15'1010.0
2016-Aug-19 11:33N 39°29' W 074°08'1010.0
2016-Aug-19 10:33N 39°38' W 074°03'10 9.8
2016-Aug-19 09:33N 39°47' W 073°58'1010.1
2016-Aug-19 08:33N 39°57' W 073°57'10 9.9
2016-Aug-19 07:33N 40°07' W 073°55'2010.0
2016-Aug-19 05:33N 40°27' W 073°56'10 9.8
2016-Aug-19 04:33N 40°30' W 074°09'0 0.1
2016-Aug-19 02:08N 40°30' W 074°08'5 8.3
2016-Aug-19 01:33N 40°32' W 074°02'9 8.7
2016-Aug-19 00:33N 40°40' W 074°00'0 0.0
2016-Aug-18 23:33N 40°40' W 074°00'0 0.0
2016-Aug-18 22:33N 40°40' W 074°00'0 0.0
2016-Aug-18 21:33N 40°40' W 074°00'0 0.0
2016-Aug-18 20:34N 40°40' W 074°00'0 0.0
2016-Aug-18 19:33N 40°40' W 074°00'5 5.2
2016-Aug-18 18:33N 40°39' W 074°07'5 1.2
2016-Aug-18 14:33N 40°36' W 074°12'6 6.4
2016-Aug-18 13:33N 40°39' W 074°05'2 1.7
2016-Aug-18 12:33N 40°40' W 074°02'0 0.0
2016-Aug-18 11:34N 40°39' W 074°02'0 0.0
2016-Aug-18 10:33N 40°39' W 074°02'0 0.1
2016-Aug-18 09:33N 40°39' W 074°02'0 0.1
2016-Aug-18 08:33N 40°39' W 074°02'0 0.0
2016-Aug-18 07:34N 40°39' W 074°03'0 0.0
2016-Aug-18 06:34N 40°39' W 074°02'0 0.0
2016-Aug-18 05:34N 40°39' W 074°02'0 0.0
2016-Aug-18 04:33N 40°39' W 074°03'0 0.0
2016-Aug-18 03:33N 40°39' W 074°02'0 0.2
2016-Aug-18 02:33N 40°39' W 074°02'0 0.0
2016-Aug-18 01:33N 40°40' W 074°02'0 0.0
2016-Aug-18 00:33N 40°40' W 074°02'0 0.0
2016-Aug-17 23:33N 40°40' W 074°02'0 0.1
2016-Aug-17 22:33N 40°39' W 074°02'0 0.2
2016-Aug-17 21:33N 40°39' W 074°02'0 0.0
2016-Aug-17 20:33N 40°39' W 074°02'0 0.0
2016-Aug-17 19:33N 40°39' W 074°02'0 0.0
2016-Aug-17 18:33N 40°39' W 074°02'0 0.0
2016-Aug-17 17:33N 40°39' W 074°02'0 0.0
2016-Aug-17 16:33N 40°39' W 074°02'0 0.0
2016-Aug-17 15:33N 40°39' W 074°02'0 0.1
2016-Aug-17 14:33N 40°39' W 074°02'0 0.2
2016-Aug-17 13:33N 40°39' W 074°02'0 0.0
2016-Aug-17 12:34N 40°40' W 074°02'0 0.0
2016-Aug-17 11:33N 40°39' W 074°02'0 0.0
2016-Aug-17 10:33N 40°39' W 074°02'0 0.1
2016-Aug-17 09:33N 40°39' W 074°02'5 5.1
2016-Aug-17 08:33N 40°34' W 074°02'4 4.5
2016-Aug-17 07:33N 40°31' W 073°58'40 7.4
2016-Aug-17 02:12N 39°51' W 073°59'5 8.0
2016-Aug-17 01:33N 39°46' W 073°60'8 8.0
2016-Aug-17 00:31N 39°38' W 074°03'8 7.8
2016-Aug-16 23:33N 39°32' W 074°08'8 7.7
2016-Aug-16 22:33N 39°25' W 074°13'8 7.6
2016-Aug-16 21:31N 39°19' W 074°19'31 7.6
2016-Aug-16 17:23N 38°55' W 074°46'7 7.8
2016-Aug-16 16:30N 38°50' W 074°52'8 8.2
2016-Aug-16 15:32N 38°49' W 075°02'10 9.0
2016-Aug-16 14:28N 38°57' W 075°07'5 5.6
2016-Aug-16 13:33N 39°02' W 075°10'8 8.0
2016-Aug-16 12:33N 39°09' W 075°15'7 6.9
2016-Aug-16 11:33N 39°15' W 075°19'7 7.3
2016-Aug-16 10:33N 39°20' W 075°26'8 8.4
2016-Aug-16 09:33N 39°27' W 075°33'9 9.4
2016-Aug-16 08:33N 39°36' W 075°34'10 9.8
2016-Aug-16 07:33N 39°45' W 075°29'5 1.8
2016-Aug-16 04:33N 39°49' W 075°24'0 0.0
2016-Aug-16 03:33N 39°49' W 075°24'0 0.0
2016-Aug-16 02:33N 39°49' W 075°24'0 0.0
2016-Aug-16 01:34N 39°49' W 075°24'0 0.0
2016-Aug-16 00:33N 39°49' W 075°24'0 0.0
2016-Aug-15 23:33N 39°49' W 075°24'0 0.0
2016-Aug-15 22:33N 39°49' W 075°24'0 0.0
2016-Aug-15 21:33N 39°49' W 075°24'  

Dump ship's entire track history